Heroic Ace — HPFM — position and weather

sailwx.info

Track history (hours):
 
Tides and Currents Weather Stations Pressure Air Temp Water Temp Dewpoint Dewpoint Depression Visibility Wind Speed Wind Dir Waves Ship Positions

Heroic Ace

Last reported at 2018-Feb-16 12:04 UTC. Time now 2018-Feb-17 23:58 UTC.
Position N 33°01' E 132°09'.

Length 198 m; draft 8.5 m.

Type: Cargo ship. MMSI: 352915000.

Date/timePositionNaut miles runAvg speedWind from/ knotsBaromVisibWave heightAir tempDewpointWater temp
2018-Feb-16 12:04N 33°01' E 132°09'117.8
2018-Feb-16 12:00N 33°02' E 132°08'1615.5
2018-Feb-16 10:59N 33°16' E 131°59'4 8.2
2018-Feb-16 10:30N 33°20' E 131°57'815.7
2018-Feb-16 10:00N 33°27' E 131°54'917.9
2018-Feb-16 09:30N 33°35' E 131°49'917.8
2018-Feb-16 09:00N 33°43' E 131°44'918.1
2018-Feb-16 08:30N 33°51' E 131°40'816.8
2018-Feb-16 08:00N 33°57' E 131°33'3 5.7
2018-Feb-16 07:30N 34°00' E 131°34'0 0.0
2018-Feb-16 06:56N 34°00' E 131°34'0 0.0
2018-Feb-16 06:26N 34°00' E 131°34'0 0.0
2018-Feb-16 05:56N 34°00' E 131°34'0 0.0
2018-Feb-16 05:26N 34°00' E 131°34'0 0.0
2018-Feb-16 04:50N 34°00' E 131°34'0 0.0
2018-Feb-16 04:29N 34°00' E 131°34'0 0.0
2018-Feb-16 03:56N 34°00' E 131°34'0 0.0
2018-Feb-16 03:14N 34°00' E 131°34'0 0.0
2018-Feb-16 02:59N 34°00' E 131°34'0 0.0
2018-Feb-16 02:17N 34°00' E 131°34'0 0.0
2018-Feb-16 01:56N 34°00' E 131°34'0 0.0
2018-Feb-16 01:20N 34°00' E 131°34'0 0.0
2018-Feb-16 00:50N 34°00' E 131°34'0 0.0
2018-Feb-16 00:26N 34°00' E 131°34'0 0.0
2018-Feb-15 23:50N 34°00' E 131°34'0 0.0
2018-Feb-15 23:26N 34°00' E 131°34'1 2.6
2018-Feb-15 23:00N 33°59' E 131°33'4 8.5
2018-Feb-15 22:30N 33°56' E 131°35'611.2
2018-Feb-15 22:00N 33°52' E 131°41'611.6
2018-Feb-15 21:30N 33°49' E 131°46'611.9
2018-Feb-15 21:00N 33°46' E 131°52'713.8
2018-Feb-15 20:30N 33°43' E 132°00'814.7
2018-Feb-15 19:59N 33°42' E 132°09'815.4
2018-Feb-15 19:29N 33°45' E 132°18'715.8
2018-Feb-15 19:01N 33°48' E 132°26'816.8
2018-Feb-15 18:30N 33°54' E 132°33'612.9
2018-Feb-15 18:00N 34°01' E 132°33'815.4
2018-Feb-15 17:31N 34°04' E 132°25'816.4
2018-Feb-15 17:00N 34°12' E 132°20'713.1
2018-Feb-15 16:30N 34°18' E 132°21'510.5
2018-Feb-15 16:00N 34°20' E 132°27'1 1.1
2018-Feb-15 15:23N 34°20' E 132°28'0 0.0
2018-Feb-15 14:47N 34°20' E 132°28'0 0.0
2018-Feb-15 14:29N 34°20' E 132°28'0 0.0
2018-Feb-15 13:59N 34°20' E 132°28'0 0.0
2018-Feb-15 13:17N 34°20' E 132°28'0 0.0
2018-Feb-15 12:59N 34°20' E 132°28'0 0.0
2018-Feb-15 12:26N 34°20' E 132°28'0 0.0
2018-Feb-15 11:35N 34°20' E 132°28'0 0.0
2018-Feb-15 11:26N 34°20' E 132°28'0 0.0
2018-Feb-15 10:47N 34°20' E 132°28'0 0.0
2018-Feb-15 10:29N 34°20' E 132°28'0 0.0
2018-Feb-15 09:59N 34°20' E 132°28'0 0.1
2018-Feb-15 09:17N 34°20' E 132°28'0 0.2
2018-Feb-15 09:00N 34°20' E 132°28'2 0.4
2018-Feb-15 05:08N 34°21' E 132°29'0 0.1
2018-Feb-15 05:00N 34°21' E 132°29'1 2.6
2018-Feb-15 04:27N 34°20' E 132°28'0 0.6
2018-Feb-15 03:56N 34°20' E 132°28'0 0.0
2018-Feb-15 03:29N 34°20' E 132°28'0 0.0
2018-Feb-15 02:59N 34°20' E 132°28'0 0.0
2018-Feb-15 02:28N 34°20' E 132°28'0 0.0
2018-Feb-15 01:59N 34°20' E 132°28'0 0.0
2018-Feb-15 01:28N 34°20' E 132°28'0 0.0
2018-Feb-15 00:59N 34°20' E 132°28'0 0.6
2018-Feb-15 00:30N 34°20' E 132°28'3 7.0
2018-Feb-15 00:00N 34°19' E 132°23'612.4
2018-Feb-14 23:30N 34°14' E 132°21'917.8
2018-Feb-14 23:00N 34°05' E 132°24'815.7
2018-Feb-14 22:28N 34°03' E 132°34'1017.8
2018-Feb-14 21:54N 34°08' E 132°45'5913.7
2018-Feb-14 17:33N 34°24' E 133°54'110.8
2018-Feb-14 17:30N 34°25' E 133°55'610.2
2018-Feb-14 16:56N 34°26' E 134°02'813.0
2018-Feb-14 16:20N 34°25' E 134°11'516.4
2018-Feb-14 16:00N 34°24' E 134°18'918.6
2018-Feb-14 15:31N 34°27' E 134°28'918.7
2018-Feb-14 15:00N 34°31' E 134°39'918.4
2018-Feb-14 14:30N 34°34' E 134°49'816.3
2018-Feb-14 14:00N 34°37' E 134°58'510.9
2018-Feb-14 13:31N 34°36' E 135°05'510.8
2018-Feb-14 13:00N 34°36' E 135°11'4 9.0
2018-Feb-14 12:31N 34°38' E 135°17'4 7.5
2018-Feb-14 12:01N 34°41' E 135°17'0 0.9
2018-Feb-14 11:29N 34°42' E 135°17'0 0.0
2018-Feb-14 10:59N 34°42' E 135°17'0 0.0
2018-Feb-14 10:29N 34°42' E 135°17'0 0.0
2018-Feb-14 09:59N 34°42' E 135°17'0 0.0
2018-Feb-14 09:29N 34°42' E 135°17'0 0.0
2018-Feb-14 08:59N 34°42' E 135°17'0 0.0
2018-Feb-14 08:26N 34°42' E 135°17'0 0.0
2018-Feb-14 07:59N 34°42' E 135°17'0 0.0
2018-Feb-14 07:29N 34°42' E 135°17'0 0.0
2018-Feb-14 06:59N 34°42' E 135°17'0 0.0
2018-Feb-14 06:29N 34°42' E 135°17'0 0.0
2018-Feb-14 05:59N 34°42' E 135°17'0 0.0
2018-Feb-14 05:29N 34°42' E 135°17'0 0.0
2018-Feb-14 04:59N 34°42' E 135°17'0 0.0
2018-Feb-14 04:29N 34°42' E 135°17'0 0.0
2018-Feb-14 03:59N 34°42' E 135°17'0 0.0
2018-Feb-14 03:29N 34°42' E 135°17'0 0.0
2018-Feb-14 02:56N 34°42' E 135°17'0 0.0
2018-Feb-14 02:29N 34°42' E 135°17'0 0.0
2018-Feb-14 01:59N 34°42' E 135°17'0 0.0
2018-Feb-14 01:29N 34°42' E 135°17'0 0.1
2018-Feb-14 01:00N 34°41' E 135°17'2 4.3
2018-Feb-14 00:30N 34°40' E 135°18'611.3
2018-Feb-14 00:01N 34°35' E 135°16'816.9
2018-Feb-13 23:30N 34°28' E 135°09'1019.5
2018-Feb-13 23:00N 34°20' E 135°02'815.7
2018-Feb-13 22:30N 34°12' E 135°00'510.3
2018-Feb-13 22:00N 34°07' E 135°00'510.0
2018-Feb-13 21:30N 34°02' E 135°00'713.8
2018-Feb-13 21:00N 33°55' E 135°00'715.0
2018-Feb-13 20:30N 33°48' E 135°02'815.2
2018-Feb-13 20:00N 33°41' E 135°04'1015.0
2018-Feb-13 19:22N 33°34' E 135°13'514.3
2018-Feb-13 18:59N 33°31' E 135°18'714.3
2018-Feb-13 18:29N 33°28' E 135°26'7313.0
2018-Feb-13 12:52N 34°00' E 136°45'3314.4
2018-Feb-13 10:33N 34°30' E 137°03'011.2
2018-Feb-13 10:30N 34°30' E 137°03'611.1
2018-Feb-13 10:00N 34°35' E 136°59'816.2
2018-Feb-13 09:30N 34°39' E 136°50'1019.7
2018-Feb-13 09:00N 34°48' E 136°46'816.7
2018-Feb-13 08:30N 34°57' E 136°47'611.9
2018-Feb-13 08:00N 35°02' E 136°51'1 2.5
2018-Feb-13 07:27N 35°03' E 136°50'0 0.0
2018-Feb-13 06:57N 35°03' E 136°50'0 0.0
2018-Feb-13 06:27N 35°03' E 136°50'0 0.0
2018-Feb-13 05:57N 35°03' E 136°50'0 0.0
2018-Feb-13 05:30N 35°03' E 136°50'0 0.0
2018-Feb-13 05:00N 35°03' E 136°50'0 0.0
2018-Feb-13 04:27N 35°03' E 136°50'0 0.0
2018-Feb-13 04:00N 35°03' E 136°50'0 0.0
2018-Feb-13 03:30N 35°03' E 136°50'0 0.0
2018-Feb-13 03:00N 35°03' E 136°50'0 0.0
2018-Feb-13 02:27N 35°03' E 136°50'0 0.0
2018-Feb-13 01:57N 35°03' E 136°50'0 0.0
2018-Feb-13 01:30N 35°03' E 136°50'0 0.0
2018-Feb-13 00:57N 35°03' E 136°50'0 0.0
2018-Feb-13 00:27N 35°03' E 136°50'0 0.0
2018-Feb-12 23:57N 35°03' E 136°50'0 0.0
2018-Feb-12 23:27N 35°03' E 136°50'0 0.0
2018-Feb-12 23:00N 35°03' E 136°50'0 0.0
2018-Feb-12 22:30N 35°03' E 136°50'0 0.0
2018-Feb-12 22:00N 35°03' E 136°50'0 0.0
2018-Feb-12 21:27N 35°03' E 136°50'0 0.0
2018-Feb-12 21:00N 35°03' E 136°50'0 0.0
2018-Feb-12 20:27N 35°03' E 136°50'0 0.0
2018-Feb-12 19:57N 35°03' E 136°50'0 0.0
2018-Feb-12 19:30N 35°03' E 136°50'0 0.0
2018-Feb-12 19:00N 35°03' E 136°50'0 0.0
2018-Feb-12 18:30N 35°03' E 136°50'0 0.0
2018-Feb-12 18:00N 35°03' E 136°50'0 0.0
2018-Feb-12 17:27N 35°03' E 136°50'0 0.0
2018-Feb-12 16:57N 35°03' E 136°50'0 0.0
2018-Feb-12 16:27N 35°03' E 136°50'0 0.0
2018-Feb-12 16:00N 35°03' E 136°50'0 0.0
2018-Feb-12 15:15N 35°03' E 136°50'0 0.0
2018-Feb-12 15:00N 35°03' E 136°50'0 0.0
2018-Feb-12 14:27N 35°03' E 136°50'0 0.0
2018-Feb-12 13:57N 35°03' E 136°50'0 0.0
2018-Feb-12 13:30N 35°03' E 136°50'0 0.0
2018-Feb-12 12:57N 35°03' E 136°50'0 0.0
2018-Feb-12 12:27N 35°03' E 136°50'0 0.0
2018-Feb-12 12:00N 35°03' E 136°50'0 0.0
2018-Feb-12 11:27N 35°03' E 136°50'0 0.0
2018-Feb-12 11:00N 35°03' E 136°50'0 0.0
2018-Feb-12 10:27N 35°03' E 136°50'0 0.0
2018-Feb-12 10:00N 35°03' E 136°50'0 0.0
2018-Feb-12 09:27N 35°03' E 136°50'0 0.0
2018-Feb-12 09:00N 35°03' E 136°50'0 0.1
2018-Feb-12 08:30N 35°03' E 136°50'1 2.8
2018-Feb-12 08:00N 35°03' E 136°52'1 2.4
2018-Feb-12 07:27N 35°04' E 136°53'0 0.1
2018-Feb-12 06:57N 35°04' E 136°53'0 0.1
2018-Feb-12 06:15N 35°04' E 136°53'0 0.0
2018-Feb-12 06:00N 35°04' E 136°53'0 0.0
2018-Feb-12 05:27N 35°04' E 136°53'0 0.0
2018-Feb-12 04:51N 35°04' E 136°53'0 0.0
2018-Feb-12 04:27N 35°04' E 136°53'0 0.0
2018-Feb-12 04:00N 35°04' E 136°53'0 0.0
2018-Feb-12 03:27N 35°04' E 136°53'0 0.0
2018-Feb-12 02:57N 35°04' E 136°53'0 0.1
2018-Feb-12 02:27N 35°04' E 136°53'0 0.1
2018-Feb-12 01:57N 35°04' E 136°53'0 0.0
2018-Feb-12 01:27N 35°04' E 136°53'0 0.0
2018-Feb-12 01:00N 35°04' E 136°53'0 0.0
2018-Feb-12 00:27N 35°04' E 136°53'0 0.0
2018-Feb-12 00:00N 35°04' E 136°53'0 0.0
2018-Feb-11 23:27N 35°04' E 136°53'0 0.0
2018-Feb-11 22:57N 35°04' E 136°53'0 0.1
2018-Feb-11 22:27N 35°04' E 136°53'0 0.1
2018-Feb-11 21:57N 35°04' E 136°53'0 1.0
2018-Feb-11 21:31N 35°03' E 136°53'5 9.4
2018-Feb-11 21:00N 34°59' E 136°49'714.9
2018-Feb-11 20:30N 34°52' E 136°47'917.3
2018-Feb-11 20:00N 34°44' E 136°49'918.1
2018-Feb-11 19:30N 34°37' E 136°56'714.2
2018-Feb-11 19:00N 34°32' E 137°03'6 8.3
2018-Feb-11 18:19N 34°29' E 137°09'3 8.9
2018-Feb-11 17:58N 34°28' E 137°12'5 9.7
2018-Feb-11 17:30N 34°27' E 137°18'2511.7
2018-Feb-11 15:20N 34°24' E 137°48'3 3.6
2018-Feb-11 14:36N 34°23' E 137°45'1 4.0
2018-Feb-11 14:27N 34°23' E 137°44'2 3.8
2018-Feb-11 13:52N 34°23' E 137°42'2 3.6
2018-Feb-11 13:27N 34°22' E 137°40'6 8.2
2018-Feb-11 12:46N 34°21' E 137°47'411.3
2018-Feb-11 12:27N 34°20' E 137°51'510.2
2018-Feb-11 12:00N 34°20' E 137°56'1 2.5
2018-Feb-11 11:30N 34°20' E 137°55'3 4.4
2018-Feb-11 10:49N 34°20' E 137°51'2 4.8
2018-Feb-11 10:29N 34°20' E 137°49'3 1.5
2018-Feb-11 08:19N 34°21' E 137°46'511.8
2018-Feb-11 07:53N 34°21' E 137°52'1 0.3
2018-Feb-11 04:09N 34°22' E 137°51'3 3.9
2018-Feb-11 03:17N 34°22' E 137°47'5 4.3
2018-Feb-11 02:01N 34°21' E 137°41'0 3.3
2018-Feb-11 01:59N 34°21' E 137°41'7 5.9
2018-Feb-11 00:43N 34°27' E 137°46'1 3.9
2018-Feb-11 00:20N 34°27' E 137°44'1 3.5
2018-Feb-10 23:54N 34°26' E 137°45'510.7
2018-Feb-10 23:28N 34°25' E 137°51'510.7
2018-Feb-10 22:57N 34°23' E 137°57'12 9.9
2018-Feb-10 21:45N 34°17' E 138°10'3 9.9
2018-Feb-10 21:26N 34°16' E 138°13'1110.5
2018-Feb-10 20:24N 34°14' E 138°26'511.2
2018-Feb-10 20:00N 34°13' E 138°31'610.8
2018-Feb-10 19:26N 34°11' E 138°38'610.8
2018-Feb-10 18:54N 34°09' E 138°45'25 9.6
2018-Feb-10 16:15N 34°09' E 139°16'2 9.2
2018-Feb-10 16:00N 34°10' E 139°18'12 9.9
2018-Feb-10 14:47N 34°20' E 139°26'513.0
2018-Feb-10 14:24N 34°25' E 139°27'512.8
2018-Feb-10 13:59N 34°30' E 139°29'613.2
2018-Feb-10 13:30N 34°36' E 139°31'713.5
2018-Feb-10 12:58N 34°43' E 139°33'714.1
2018-Feb-10 12:29N 34°49' E 139°36'714.4
2018-Feb-10 12:00N 34°56' E 139°39'713.9
2018-Feb-10 11:30N 35°02' E 139°42'713.7
2018-Feb-10 11:00N 35°09' E 139°44'510.8
2018-Feb-10 10:30N 35°14' E 139°46'612.5
2018-Feb-10 10:00N 35°20' E 139°43'611.4
2018-Feb-10 09:30N 35°25' E 139°43'2 4.6
2018-Feb-10 09:00N 35°27' E 139°41'0 0.0
2018-Feb-10 08:29N 35°27' E 139°41'0 0.0
2018-Feb-10 07:59N 35°27' E 139°41'0 0.0
2018-Feb-10 07:29N 35°27' E 139°41'0 0.0
2018-Feb-10 06:59N 35°27' E 139°41'0 0.0
2018-Feb-10 06:29N 35°27' E 139°41'0 0.0
2018-Feb-10 05:59N 35°27' E 139°41'0 0.0
2018-Feb-10 05:29N 35°27' E 139°41'0 0.0
2018-Feb-10 04:59N 35°27' E 139°41'0 0.0
2018-Feb-10 04:29N 35°27' E 139°41'0 0.0
2018-Feb-10 03:59N 35°27' E 139°41'0 0.0
2018-Feb-10 03:29N 35°27' E 139°41'0 0.0
2018-Feb-10 02:59N 35°27' E 139°41'0 0.0
2018-Feb-10 02:29N 35°27' E 139°41'0 0.0
2018-Feb-10 01:59N 35°27' E 139°41'0 0.0
2018-Feb-10 01:29N 35°27' E 139°41'0 0.0
2018-Feb-10 00:59N 35°27' E 139°41'0 0.0
2018-Feb-10 00:29N 35°27' E 139°41'0 0.0
2018-Feb-09 23:56N 35°27' E 139°41'0 0.0
2018-Feb-09 23:29N 35°27' E 139°41'0 0.0
2018-Feb-09 22:59N 35°27' E 139°41'0 0.0
2018-Feb-09 22:44N 35°27' E 139°41'1 0.8
2018-Feb-09 21:30N 35°26' E 139°42'12 0.8
2018-Feb-09 06:30N 35°15' E 139°47'1610.9
2018-Feb-09 05:00N 34°60' E 139°42'1414.3
2018-Feb-09 04:00N 34°45' E 139°45'  
Track history (hours):
 
Tides and Currents Weather Stations Pressure Air Temp Water Temp Dewpoint Dewpoint Depression Visibility Wind Speed Wind Dir Waves Ship Positions

Heroic Ace

Last reported at 2018-Feb-16 12:04 UTC. Time now 2018-Feb-17 23:58 UTC.
Position N 33°01' E 132°09'.

Length 198 m; draft 8.5 m.

Type: Cargo ship. MMSI: 352915000.

Date/timePositionNaut miles runAvg speedWind from/ knotsBaromVisibWave heightAir tempDewpointWater temp
2018-Feb-16 12:04N 33°01' E 132°09'117.8
2018-Feb-16 12:00N 33°02' E 132°08'1615.5
2018-Feb-16 10:59N 33°16' E 131°59'4 8.2
2018-Feb-16 10:30N 33°20' E 131°57'815.7
2018-Feb-16 10:00N 33°27' E 131°54'917.9
2018-Feb-16 09:30N 33°35' E 131°49'917.8
2018-Feb-16 09:00N 33°43' E 131°44'918.1
2018-Feb-16 08:30N 33°51' E 131°40'816.8
2018-Feb-16 08:00N 33°57' E 131°33'3 5.7
2018-Feb-16 07:30N 34°00' E 131°34'0 0.0
2018-Feb-16 06:56N 34°00' E 131°34'0 0.0
2018-Feb-16 06:26N 34°00' E 131°34'0 0.0
2018-Feb-16 05:56N 34°00' E 131°34'0 0.0
2018-Feb-16 05:26N 34°00' E 131°34'0 0.0
2018-Feb-16 04:50N 34°00' E 131°34'0 0.0
2018-Feb-16 04:29N 34°00' E 131°34'0 0.0
2018-Feb-16 03:56N 34°00' E 131°34'0 0.0
2018-Feb-16 03:14N 34°00' E 131°34'0 0.0
2018-Feb-16 02:59N 34°00' E 131°34'0 0.0
2018-Feb-16 02:17N 34°00' E 131°34'0 0.0
2018-Feb-16 01:56N 34°00' E 131°34'0 0.0
2018-Feb-16 01:20N 34°00' E 131°34'0 0.0
2018-Feb-16 00:50N 34°00' E 131°34'0 0.0
2018-Feb-16 00:26N 34°00' E 131°34'0 0.0
2018-Feb-15 23:50N 34°00' E 131°34'0 0.0
2018-Feb-15 23:26N 34°00' E 131°34'1 2.6
2018-Feb-15 23:00N 33°59' E 131°33'4 8.5
2018-Feb-15 22:30N 33°56' E 131°35'611.2
2018-Feb-15 22:00N 33°52' E 131°41'611.6
2018-Feb-15 21:30N 33°49' E 131°46'611.9
2018-Feb-15 21:00N 33°46' E 131°52'713.8
2018-Feb-15 20:30N 33°43' E 132°00'814.7
2018-Feb-15 19:59N 33°42' E 132°09'815.4
2018-Feb-15 19:29N 33°45' E 132°18'715.8
2018-Feb-15 19:01N 33°48' E 132°26'816.8
2018-Feb-15 18:30N 33°54' E 132°33'612.9
2018-Feb-15 18:00N 34°01' E 132°33'815.4
2018-Feb-15 17:31N 34°04' E 132°25'816.4
2018-Feb-15 17:00N 34°12' E 132°20'713.1
2018-Feb-15 16:30N 34°18' E 132°21'510.5
2018-Feb-15 16:00N 34°20' E 132°27'1 1.1
2018-Feb-15 15:23N 34°20' E 132°28'0 0.0
2018-Feb-15 14:47N 34°20' E 132°28'0 0.0
2018-Feb-15 14:29N 34°20' E 132°28'0 0.0
2018-Feb-15 13:59N 34°20' E 132°28'0 0.0
2018-Feb-15 13:17N 34°20' E 132°28'0 0.0
2018-Feb-15 12:59N 34°20' E 132°28'0 0.0
2018-Feb-15 12:26N 34°20' E 132°28'0 0.0
2018-Feb-15 11:35N 34°20' E 132°28'0 0.0
2018-Feb-15 11:26N 34°20' E 132°28'0 0.0
2018-Feb-15 10:47N 34°20' E 132°28'0 0.0
2018-Feb-15 10:29N 34°20' E 132°28'0 0.0
2018-Feb-15 09:59N 34°20' E 132°28'0 0.1
2018-Feb-15 09:17N 34°20' E 132°28'0 0.2
2018-Feb-15 09:00N 34°20' E 132°28'2 0.4
2018-Feb-15 05:08N 34°21' E 132°29'0 0.1
2018-Feb-15 05:00N 34°21' E 132°29'1 2.6
2018-Feb-15 04:27N 34°20' E 132°28'0 0.6
2018-Feb-15 03:56N 34°20' E 132°28'0 0.0
2018-Feb-15 03:29N 34°20' E 132°28'0 0.0
2018-Feb-15 02:59N 34°20' E 132°28'0 0.0
2018-Feb-15 02:28N 34°20' E 132°28'0 0.0
2018-Feb-15 01:59N 34°20' E 132°28'0 0.0
2018-Feb-15 01:28N 34°20' E 132°28'0 0.0
2018-Feb-15 00:59N 34°20' E 132°28'0 0.6
2018-Feb-15 00:30N 34°20' E 132°28'3 7.0
2018-Feb-15 00:00N 34°19' E 132°23'612.4
2018-Feb-14 23:30N 34°14' E 132°21'917.8
2018-Feb-14 23:00N 34°05' E 132°24'815.7
2018-Feb-14 22:28N 34°03' E 132°34'1017.8
2018-Feb-14 21:54N 34°08' E 132°45'5913.7
2018-Feb-14 17:33N 34°24' E 133°54'110.8
2018-Feb-14 17:30N 34°25' E 133°55'610.2
2018-Feb-14 16:56N 34°26' E 134°02'813.0
2018-Feb-14 16:20N 34°25' E 134°11'516.4
2018-Feb-14 16:00N 34°24' E 134°18'918.6
2018-Feb-14 15:31N 34°27' E 134°28'918.7
2018-Feb-14 15:00N 34°31' E 134°39'918.4
2018-Feb-14 14:30N 34°34' E 134°49'816.3
2018-Feb-14 14:00N 34°37' E 134°58'510.9
2018-Feb-14 13:31N 34°36' E 135°05'510.8
2018-Feb-14 13:00N 34°36' E 135°11'4 9.0
2018-Feb-14 12:31N 34°38' E 135°17'4 7.5
2018-Feb-14 12:01N 34°41' E 135°17'0 0.9
2018-Feb-14 11:29N 34°42' E 135°17'0 0.0
2018-Feb-14 10:59N 34°42' E 135°17'0 0.0
2018-Feb-14 10:29N 34°42' E 135°17'0 0.0
2018-Feb-14 09:59N 34°42' E 135°17'0 0.0
2018-Feb-14 09:29N 34°42' E 135°17'0 0.0
2018-Feb-14 08:59N 34°42' E 135°17'0 0.0
2018-Feb-14 08:26N 34°42' E 135°17'0 0.0
2018-Feb-14 07:59N 34°42' E 135°17'0 0.0
2018-Feb-14 07:29N 34°42' E 135°17'0 0.0
2018-Feb-14 06:59N 34°42' E 135°17'0 0.0
2018-Feb-14 06:29N 34°42' E 135°17'0 0.0
2018-Feb-14 05:59N 34°42' E 135°17'0 0.0
2018-Feb-14 05:29N 34°42' E 135°17'0 0.0
2018-Feb-14 04:59N 34°42' E 135°17'0 0.0
2018-Feb-14 04:29N 34°42' E 135°17'0 0.0
2018-Feb-14 03:59N 34°42' E 135°17'0 0.0
2018-Feb-14 03:29N 34°42' E 135°17'0 0.0
2018-Feb-14 02:56N 34°42' E 135°17'0 0.0
2018-Feb-14 02:29N 34°42' E 135°17'0 0.0
2018-Feb-14 01:59N 34°42' E 135°17'0 0.0
2018-Feb-14 01:29N 34°42' E 135°17'0 0.1
2018-Feb-14 01:00N 34°41' E 135°17'2 4.3
2018-Feb-14 00:30N 34°40' E 135°18'611.3
2018-Feb-14 00:01N 34°35' E 135°16'816.9
2018-Feb-13 23:30N 34°28' E 135°09'1019.5
2018-Feb-13 23:00N 34°20' E 135°02'815.7
2018-Feb-13 22:30N 34°12' E 135°00'510.3
2018-Feb-13 22:00N 34°07' E 135°00'510.0
2018-Feb-13 21:30N 34°02' E 135°00'713.8
2018-Feb-13 21:00N 33°55' E 135°00'715.0
2018-Feb-13 20:30N 33°48' E 135°02'815.2
2018-Feb-13 20:00N 33°41' E 135°04'1015.0
2018-Feb-13 19:22N 33°34' E 135°13'514.3
2018-Feb-13 18:59N 33°31' E 135°18'714.3
2018-Feb-13 18:29N 33°28' E 135°26'7313.0
2018-Feb-13 12:52N 34°00' E 136°45'3314.4
2018-Feb-13 10:33N 34°30' E 137°03'011.2
2018-Feb-13 10:30N 34°30' E 137°03'611.1
2018-Feb-13 10:00N 34°35' E 136°59'816.2
2018-Feb-13 09:30N 34°39' E 136°50'1019.7
2018-Feb-13 09:00N 34°48' E 136°46'816.7
2018-Feb-13 08:30N 34°57' E 136°47'611.9
2018-Feb-13 08:00N 35°02' E 136°51'1 2.5
2018-Feb-13 07:27N 35°03' E 136°50'0 0.0
2018-Feb-13 06:57N 35°03' E 136°50'0 0.0
2018-Feb-13 06:27N 35°03' E 136°50'0 0.0
2018-Feb-13 05:57N 35°03' E 136°50'0 0.0
2018-Feb-13 05:30N 35°03' E 136°50'0 0.0
2018-Feb-13 05:00N 35°03' E 136°50'0 0.0
2018-Feb-13 04:27N 35°03' E 136°50'0 0.0
2018-Feb-13 04:00N 35°03' E 136°50'0 0.0
2018-Feb-13 03:30N 35°03' E 136°50'0 0.0
2018-Feb-13 03:00N 35°03' E 136°50'0 0.0
2018-Feb-13 02:27N 35°03' E 136°50'0 0.0
2018-Feb-13 01:57N 35°03' E 136°50'0 0.0
2018-Feb-13 01:30N 35°03' E 136°50'0 0.0
2018-Feb-13 00:57N 35°03' E 136°50'0 0.0
2018-Feb-13 00:27N 35°03' E 136°50'0 0.0
2018-Feb-12 23:57N 35°03' E 136°50'0 0.0
2018-Feb-12 23:27N 35°03' E 136°50'0 0.0
2018-Feb-12 23:00N 35°03' E 136°50'0 0.0
2018-Feb-12 22:30N 35°03' E 136°50'0 0.0
2018-Feb-12 22:00N 35°03' E 136°50'0 0.0
2018-Feb-12 21:27N 35°03' E 136°50'0 0.0
2018-Feb-12 21:00N 35°03' E 136°50'0 0.0
2018-Feb-12 20:27N 35°03' E 136°50'0 0.0
2018-Feb-12 19:57N 35°03' E 136°50'0 0.0
2018-Feb-12 19:30N 35°03' E 136°50'0 0.0
2018-Feb-12 19:00N 35°03' E 136°50'0 0.0
2018-Feb-12 18:30N 35°03' E 136°50'0 0.0
2018-Feb-12 18:00N 35°03' E 136°50'0 0.0
2018-Feb-12 17:27N 35°03' E 136°50'0 0.0
2018-Feb-12 16:57N 35°03' E 136°50'0 0.0
2018-Feb-12 16:27N 35°03' E 136°50'0 0.0
2018-Feb-12 16:00N 35°03' E 136°50'0 0.0
2018-Feb-12 15:15N 35°03' E 136°50'0 0.0
2018-Feb-12 15:00N 35°03' E 136°50'0 0.0
2018-Feb-12 14:27N 35°03' E 136°50'0 0.0
2018-Feb-12 13:57N 35°03' E 136°50'0 0.0
2018-Feb-12 13:30N 35°03' E 136°50'0 0.0
2018-Feb-12 12:57N 35°03' E 136°50'0 0.0
2018-Feb-12 12:27N 35°03' E 136°50'0 0.0
2018-Feb-12 12:00N 35°03' E 136°50'0 0.0
2018-Feb-12 11:27N 35°03' E 136°50'0 0.0
2018-Feb-12 11:00N 35°03' E 136°50'0 0.0
2018-Feb-12 10:27N 35°03' E 136°50'0 0.0
2018-Feb-12 10:00N 35°03' E 136°50'0 0.0
2018-Feb-12 09:27N 35°03' E 136°50'0 0.0
2018-Feb-12 09:00N 35°03' E 136°50'0 0.1
2018-Feb-12 08:30N 35°03' E 136°50'1 2.8
2018-Feb-12 08:00N 35°03' E 136°52'1 2.4
2018-Feb-12 07:27N 35°04' E 136°53'0 0.1
2018-Feb-12 06:57N 35°04' E 136°53'0 0.1
2018-Feb-12 06:15N 35°04' E 136°53'0 0.0
2018-Feb-12 06:00N 35°04' E 136°53'0 0.0
2018-Feb-12 05:27N 35°04' E 136°53'0 0.0
2018-Feb-12 04:51N 35°04' E 136°53'0 0.0
2018-Feb-12 04:27N 35°04' E 136°53'0 0.0
2018-Feb-12 04:00N 35°04' E 136°53'0 0.0
2018-Feb-12 03:27N 35°04' E 136°53'0 0.0
2018-Feb-12 02:57N 35°04' E 136°53'0 0.1
2018-Feb-12 02:27N 35°04' E 136°53'0 0.1
2018-Feb-12 01:57N 35°04' E 136°53'0 0.0
2018-Feb-12 01:27N 35°04' E 136°53'0 0.0
2018-Feb-12 01:00N 35°04' E 136°53'0 0.0
2018-Feb-12 00:27N 35°04' E 136°53'0 0.0
2018-Feb-12 00:00N 35°04' E 136°53'0 0.0
2018-Feb-11 23:27N 35°04' E 136°53'0 0.0
2018-Feb-11 22:57N 35°04' E 136°53'0 0.1
2018-Feb-11 22:27N 35°04' E 136°53'0 0.1
2018-Feb-11 21:57N 35°04' E 136°53'0 1.0
2018-Feb-11 21:31N 35°03' E 136°53'5 9.4
2018-Feb-11 21:00N 34°59' E 136°49'714.9
2018-Feb-11 20:30N 34°52' E 136°47'917.3
2018-Feb-11 20:00N 34°44' E 136°49'918.1
2018-Feb-11 19:30N 34°37' E 136°56'714.2
2018-Feb-11 19:00N 34°32' E 137°03'6 8.3
2018-Feb-11 18:19N 34°29' E 137°09'3 8.9
2018-Feb-11 17:58N 34°28' E 137°12'5 9.7
2018-Feb-11 17:30N 34°27' E 137°18'2511.7
2018-Feb-11 15:20N 34°24' E 137°48'3 3.6
2018-Feb-11 14:36N 34°23' E 137°45'1 4.0
2018-Feb-11 14:27N 34°23' E 137°44'2 3.8
2018-Feb-11 13:52N 34°23' E 137°42'2 3.6
2018-Feb-11 13:27N 34°22' E 137°40'6 8.2
2018-Feb-11 12:46N 34°21' E 137°47'411.3
2018-Feb-11 12:27N 34°20' E 137°51'510.2
2018-Feb-11 12:00N 34°20' E 137°56'1 2.5
2018-Feb-11 11:30N 34°20' E 137°55'3 4.4
2018-Feb-11 10:49N 34°20' E 137°51'2 4.8
2018-Feb-11 10:29N 34°20' E 137°49'3 1.5
2018-Feb-11 08:19N 34°21' E 137°46'511.8
2018-Feb-11 07:53N 34°21' E 137°52'1 0.3
2018-Feb-11 04:09N 34°22' E 137°51'3 3.9
2018-Feb-11 03:17N 34°22' E 137°47'5 4.3
2018-Feb-11 02:01N 34°21' E 137°41'0 3.3
2018-Feb-11 01:59N 34°21' E 137°41'7 5.9
2018-Feb-11 00:43N 34°27' E 137°46'1 3.9
2018-Feb-11 00:20N 34°27' E 137°44'1 3.5
2018-Feb-10 23:54N 34°26' E 137°45'510.7
2018-Feb-10 23:28N 34°25' E 137°51'510.7
2018-Feb-10 22:57N 34°23' E 137°57'12 9.9
2018-Feb-10 21:45N 34°17' E 138°10'3 9.9
2018-Feb-10 21:26N 34°16' E 138°13'1110.5
2018-Feb-10 20:24N 34°14' E 138°26'511.2
2018-Feb-10 20:00N 34°13' E 138°31'610.8
2018-Feb-10 19:26N 34°11' E 138°38'610.8
2018-Feb-10 18:54N 34°09' E 138°45'25 9.6
2018-Feb-10 16:15N 34°09' E 139°16'2 9.2
2018-Feb-10 16:00N 34°10' E 139°18'12 9.9
2018-Feb-10 14:47N 34°20' E 139°26'513.0
2018-Feb-10 14:24N 34°25' E 139°27'512.8
2018-Feb-10 13:59N 34°30' E 139°29'613.2
2018-Feb-10 13:30N 34°36' E 139°31'713.5
2018-Feb-10 12:58N 34°43' E 139°33'714.1
2018-Feb-10 12:29N 34°49' E 139°36'714.4
2018-Feb-10 12:00N 34°56' E 139°39'713.9
2018-Feb-10 11:30N 35°02' E 139°42'713.7
2018-Feb-10 11:00N 35°09' E 139°44'510.8
2018-Feb-10 10:30N 35°14' E 139°46'612.5
2018-Feb-10 10:00N 35°20' E 139°43'611.4
2018-Feb-10 09:30N 35°25' E 139°43'2 4.6
2018-Feb-10 09:00N 35°27' E 139°41'0 0.0
2018-Feb-10 08:29N 35°27' E 139°41'0 0.0
2018-Feb-10 07:59N 35°27' E 139°41'0 0.0
2018-Feb-10 07:29N 35°27' E 139°41'0 0.0
2018-Feb-10 06:59N 35°27' E 139°41'0 0.0
2018-Feb-10 06:29N 35°27' E 139°41'0 0.0
2018-Feb-10 05:59N 35°27' E 139°41'0 0.0
2018-Feb-10 05:29N 35°27' E 139°41'0 0.0
2018-Feb-10 04:59N 35°27' E 139°41'0 0.0
2018-Feb-10 04:29N 35°27' E 139°41'0 0.0
2018-Feb-10 03:59N 35°27' E 139°41'0 0.0
2018-Feb-10 03:29N 35°27' E 139°41'0 0.0
2018-Feb-10 02:59N 35°27' E 139°41'0 0.0
2018-Feb-10 02:29N 35°27' E 139°41'0 0.0
2018-Feb-10 01:59N 35°27' E 139°41'0 0.0
2018-Feb-10 01:29N 35°27' E 139°41'0 0.0
2018-Feb-10 00:59N 35°27' E 139°41'0 0.0
2018-Feb-10 00:29N 35°27' E 139°41'0 0.0
2018-Feb-09 23:56N 35°27' E 139°41'0 0.0
2018-Feb-09 23:29N 35°27' E 139°41'0 0.0
2018-Feb-09 22:59N 35°27' E 139°41'0 0.0
2018-Feb-09 22:44N 35°27' E 139°41'1 0.8
2018-Feb-09 21:30N 35°26' E 139°42'12 0.8
2018-Feb-09 06:30N 35°15' E 139°47'1610.9
2018-Feb-09 05:00N 34°60' E 139°42'1414.3
2018-Feb-09 04:00N 34°45' E 139°45'  

Dump ship's entire track history